createdAt,value
2017-11-08T00:00:20.207Z,5.47
2017-11-08T00:02:49.860Z,5.43
2017-11-08T00:05:20.840Z,5.28
2017-11-08T00:07:51.403Z,5.26
2017-11-08T00:10:21.368Z,5.15
2017-11-08T00:12:50.974Z,5.08
2017-11-08T00:15:21.072Z,5.05
2017-11-08T00:17:50.142Z,4.96
2017-11-08T00:20:21.255Z,4.97
2017-11-08T00:22:50.298Z,4.85
2017-11-08T00:25:19.363Z,4.76
2017-11-08T00:27:48.406Z,4.64
2017-11-08T00:30:17.500Z,4.54
2017-11-08T00:32:46.532Z,4.38
2017-11-08T00:37:51.545Z,4.26
2017-11-08T00:40:20.608Z,4.20
2017-11-08T00:42:49.706Z,4.09
2017-11-08T00:45:18.817Z,4.12
2017-11-08T00:47:47.858Z,4.07
2017-11-08T00:50:16.898Z,3.99
2017-11-08T00:52:48.750Z,3.98
2017-11-08T00:55:17.909Z,3.98
2017-11-08T00:57:47.714Z,3.86
2017-11-08T01:02:52.635Z,3.73
2017-11-08T01:07:57.657Z,3.65
2017-11-08T01:10:28.624Z,3.43
2017-11-08T01:12:57.671Z,3.41
2017-11-08T01:15:26.775Z,3.23
2017-11-08T01:20:31.702Z,3.09
2017-11-08T01:23:00.752Z,3.10
2017-11-08T01:25:29.810Z,3.02
2017-11-08T01:27:58.876Z,3.06
2017-11-08T01:30:27.915Z,3.00
2017-11-08T01:35:32.927Z,3.06
2017-11-08T01:38:16.753Z,3.08
2017-11-08T01:40:48.100Z,2.93
2017-11-08T01:43:17.141Z,2.95
2017-11-08T01:45:46.180Z,2.83
2017-11-08T01:48:16.116Z,2.77
2017-11-08T01:50:50.970Z,2.87
2017-11-08T01:53:20.968Z,2.98
2017-11-08T01:58:25.941Z,3.19
2017-11-08T02:00:59.590Z,3.28
2017-11-08T02:06:06.447Z,3.61
2017-11-08T02:08:35.506Z,3.72
2017-11-08T02:11:04.553Z,3.79
2017-11-08T02:13:33.628Z,3.89
2017-11-08T02:16:05.091Z,3.93
2017-11-08T02:18:36.985Z,3.97
2017-11-08T02:21:06.035Z,3.99
2017-11-08T02:23:35.368Z,4.05
2017-11-08T02:26:08.392Z,4.01
2017-11-08T02:28:37.519Z,4.12
2017-11-08T02:31:06.539Z,4.05
2017-11-08T02:33:35.583Z,4.05
2017-11-08T02:36:05.558Z,4.04
2017-11-08T02:38:34.612Z,4.12
2017-11-08T02:41:04.563Z,4.04
2017-11-08T02:43:33.713Z,4.01
2017-11-08T02:46:07.151Z,3.95
2017-11-08T02:48:36.219Z,4.02
2017-11-08T02:51:08.006Z,4.05
2017-11-08T02:53:37.057Z,3.99
2017-11-08T02:56:06.095Z,4.08
2017-11-08T02:58:36.160Z,4.02
2017-11-08T03:03:46.034Z,3.88
2017-11-08T03:06:16.047Z,3.82
2017-11-08T03:08:45.091Z,3.79
2017-11-08T03:11:14.159Z,3.87
2017-11-08T03:13:43.196Z,3.90
2017-11-08T03:16:12.261Z,3.96
2017-11-08T03:18:41.322Z,4.01
2017-11-08T03:21:11.335Z,4.02
2017-11-08T03:26:16.339Z,4.04
2017-11-08T03:28:45.380Z,3.95
2017-11-08T03:31:14.420Z,3.89
2017-11-08T03:33:43.475Z,3.78
2017-11-08T03:36:12.514Z,3.72
2017-11-08T03:41:17.461Z,3.58
2017-11-08T03:43:46.545Z,3.48
2017-11-08T03:46:15.582Z,3.32
2017-11-08T03:48:44.739Z,3.21
2017-11-08T03:51:13.771Z,3.21
2017-11-08T03:53:42.822Z,3.24
2017-11-08T03:56:11.867Z,3.29
2017-11-08T03:58:40.923Z,3.20
2017-11-08T04:01:09.967Z,3.18
2017-11-08T04:03:39.025Z,3.19
2017-11-08T04:06:08.055Z,3.07
2017-11-08T04:08:37.090Z,3.06
2017-11-08T04:11:06.145Z,2.91
2017-11-08T04:13:35.193Z,2.89
2017-11-08T04:16:04.262Z,2.85
2017-11-08T04:18:33.313Z,2.83
2017-11-08T04:21:02.367Z,2.76
2017-11-08T04:23:31.402Z,2.73
2017-11-08T04:26:00.475Z,2.70
2017-11-08T04:28:29.562Z,2.70
2017-11-08T04:30:58.599Z,2.59
2017-11-08T04:33:27.648Z,2.60
2017-11-08T04:35:56.808Z,2.57
2017-11-08T04:38:26.847Z,2.50
2017-11-08T04:40:55.878Z,2.48
2017-11-08T04:43:25.867Z,2.28
2017-11-08T04:45:54.935Z,2.17
2017-11-08T04:48:23.987Z,2.00
2017-11-08T04:53:28.918Z,1.96
2017-11-08T04:58:35.858Z,1.94
2017-11-08T05:03:40.775Z,1.89
2017-11-08T05:08:45.730Z,1.79
2017-11-08T05:13:52.626Z,1.74
2017-11-08T05:16:21.673Z,1.77
2017-11-08T05:18:50.773Z,1.73
2017-11-08T05:21:19.783Z,1.66
2017-11-08T05:23:48.827Z,1.47
2017-11-08T05:31:30.347Z,1.46
2017-11-08T05:34:00.386Z,1.57
2017-11-08T05:39:05.339Z,1.64
2017-11-08T05:41:34.468Z,1.46
2017-11-08T05:44:04.510Z,1.41
2017-11-08T05:46:33.572Z,1.42
2017-11-08T05:51:38.491Z,1.53
2017-11-08T05:54:07.618Z,1.65
2017-11-08T05:56:36.725Z,1.77
2017-11-08T05:59:07.370Z,1.87
2017-11-08T06:01:36.445Z,1.76
2017-11-08T06:04:06.447Z,1.74
2017-11-08T06:06:36.418Z,1.58
2017-11-08T06:09:05.470Z,1.46
2017-11-08T06:11:34.520Z,1.25
2017-11-08T06:14:04.503Z,1.19
2017-11-08T06:16:33.542Z,1.16
2017-11-08T06:19:02.591Z,1.03
2017-11-08T06:21:31.642Z,1.10
2017-11-08T06:24:01.730Z,1.16
2017-11-08T06:26:30.774Z,1.22
2017-11-08T06:29:01.847Z,1.13
2017-11-08T06:31:30.907Z,1.20
2017-11-08T06:33:59.938Z,1.28
2017-11-08T06:36:29.122Z,1.39
2017-11-08T06:39:00.081Z,1.36
2017-11-08T06:41:30.171Z,1.43
2017-11-08T06:43:59.219Z,1.53
2017-11-08T06:49:05.178Z,1.60
2017-11-08T06:51:36.083Z,1.39
2017-11-08T06:54:08.083Z,1.40
2017-11-08T06:56:37.138Z,1.14
2017-11-08T06:59:06.208Z,1.21
2017-11-08T07:01:35.246Z,1.29
2017-11-08T07:04:04.328Z,1.21
2017-11-08T07:06:39.866Z,1.33
2017-11-08T07:09:10.882Z,1.52
2017-11-08T07:11:40.102Z,1.70
2017-11-08T07:16:46.475Z,2.06
2017-11-08T07:19:15.536Z,2.15
2017-11-08T07:21:44.601Z,2.28
2017-11-08T07:24:13.695Z,2.47
2017-11-08T07:26:42.727Z,2.64
2017-11-08T07:29:11.813Z,2.74
2017-11-08T07:31:40.887Z,3.00
2017-11-08T07:34:09.970Z,3.16
2017-11-08T07:36:39.022Z,3.26
2017-11-08T07:39:08.064Z,3.43
2017-11-08T07:41:37.113Z,3.57
2017-11-08T07:44:07.209Z,3.77
2017-11-08T07:46:36.238Z,4.07
2017-11-08T07:49:05.262Z,4.37
2017-11-08T07:51:34.351Z,4.79
2017-11-08T07:56:39.530Z,5.37
2017-11-08T07:59:08.584Z,5.44
2017-11-08T08:01:37.713Z,5.55
2017-11-08T08:04:06.749Z,5.47
2017-11-08T08:06:35.842Z,5.52
2017-11-08T08:09:04.883Z,5.37
2017-11-08T08:11:33.922Z,5.34
2017-11-08T08:14:02.994Z,5.58
2017-11-08T08:16:32.022Z,5.77
2017-11-08T08:21:36.966Z,6.08
2017-11-08T08:24:06.007Z,6.26
2017-11-08T08:26:41.398Z,6.41
2017-11-08T08:29:10.437Z,6.64
2017-11-08T08:31:39.610Z,6.71
2017-11-08T08:34:08.642Z,6.75
2017-11-08T08:39:13.585Z,7.12
2017-11-08T08:41:42.667Z,7.16
2017-11-08T08:44:11.710Z,6.95
2017-11-08T08:49:16.607Z,6.89
2017-11-08T08:51:46.634Z,6.88
2017-11-08T08:54:15.672Z,6.74
2017-11-08T08:59:20.586Z,6.99
2017-11-08T09:01:49.686Z,7.13
2017-11-08T09:04:18.756Z,6.98
2017-11-08T09:06:47.852Z,6.91
2017-11-08T09:09:16.865Z,6.86
2017-11-08T09:11:45.931Z,6.96
2017-11-08T09:14:14.977Z,7.02
2017-11-08T09:16:43.998Z,7.19
2017-11-08T09:19:13.077Z,7.12
2017-11-08T09:21:42.226Z,7.29
2017-11-08T09:24:14.006Z,7.22
2017-11-08T09:32:03.833Z,7.57
2017-11-08T09:37:08.879Z,7.60
2017-11-08T09:39:37.984Z,7.63
2017-11-08T09:42:09.845Z,7.49
2017-11-08T09:47:14.826Z,7.74
2017-11-08T09:49:43.849Z,7.50
2017-11-08T09:52:12.922Z,7.57
2017-11-08T09:54:41.943Z,7.51
2017-11-08T09:57:10.977Z,7.61
2017-11-08T09:59:43.032Z,7.84
2017-11-08T10:02:12.058Z,8.00
2017-11-08T10:04:41.104Z,7.88
2017-11-08T10:07:10.143Z,7.75
2017-11-08T10:09:41.970Z,7.63
2017-11-08T10:12:12.909Z,7.61
2017-11-08T10:14:42.930Z,7.58
2017-11-08T10:17:11.957Z,7.53
2017-11-08T10:22:16.878Z,7.60
2017-11-08T10:24:45.907Z,7.67
2017-11-08T10:27:14.952Z,7.63
2017-11-08T10:29:44.975Z,7.54
2017-11-08T10:32:14.000Z,7.60
2017-11-08T10:34:43.061Z,7.69
2017-11-08T10:37:12.119Z,7.64
2017-11-08T10:39:41.194Z,7.65
2017-11-08T10:42:10.199Z,7.84
2017-11-08T10:44:40.259Z,8.12
2017-11-08T10:47:09.312Z,8.05
2017-11-08T10:49:57.243Z,7.80
2017-11-08T10:52:26.305Z,7.65
2017-11-08T10:54:55.330Z,7.93
2017-11-08T10:57:24.366Z,7.97
2017-11-08T11:02:32.363Z,7.95
2017-11-08T11:07:37.344Z,8.05
2017-11-08T11:10:07.138Z,8.41
2017-11-08T11:12:36.186Z,8.40
2017-11-08T11:15:05.234Z,8.49
2017-11-08T11:17:34.273Z,8.47
2017-11-08T11:20:03.314Z,8.16
2017-11-08T11:22:32.359Z,8.16
2017-11-08T11:25:02.381Z,8.38
2017-11-08T11:27:33.432Z,8.58
2017-11-08T11:30:03.429Z,8.56
2017-11-08T11:32:32.472Z,8.82
2017-11-08T11:35:01.546Z,8.80
2017-11-08T11:37:31.324Z,8.62
2017-11-08T11:40:00.399Z,8.71
2017-11-08T11:42:29.435Z,8.58
2017-11-08T11:44:58.465Z,8.30
2017-11-08T11:47:27.501Z,8.35
2017-11-08T11:50:01.492Z,8.08
2017-11-08T11:52:30.519Z,8.08
2017-11-08T11:57:35.468Z,8.35
2017-11-08T12:02:40.392Z,7.97
2017-11-08T12:05:09.441Z,7.83
2017-11-08T12:07:39.240Z,7.70
2017-11-08T12:10:09.005Z,7.77
2017-11-08T12:12:38.030Z,7.70
2017-11-08T12:15:07.085Z,7.67
2017-11-08T12:20:13.022Z,7.89
2017-11-08T12:22:42.051Z,7.87
2017-11-08T12:25:11.225Z,7.73
2017-11-08T12:27:40.280Z,7.64
2017-11-08T12:30:11.078Z,7.68
2017-11-08T12:32:40.092Z,7.56
2017-11-08T12:35:09.136Z,7.48
2017-11-08T12:37:39.147Z,7.58
2017-11-08T12:40:26.556Z,7.57
2017-11-08T12:43:02.036Z,7.67
2017-11-08T12:45:31.063Z,7.65
2017-11-08T12:48:01.018Z,7.64
2017-11-08T12:50:30.150Z,7.74
2017-11-08T12:52:59.167Z,8.03
2017-11-08T12:55:28.219Z,8.07
2017-11-08T12:57:58.265Z,8.15
2017-11-08T13:00:30.304Z,8.08
2017-11-08T13:02:59.353Z,8.08
2017-11-08T13:08:04.946Z,8.24
2017-11-08T13:10:39.531Z,8.28
2017-11-08T13:13:08.569Z,8.17
2017-11-08T13:15:37.607Z,8.27
2017-11-08T13:18:06.639Z,8.37
2017-11-08T13:23:11.556Z,8.53
2017-11-08T13:25:40.600Z,8.50
2017-11-08T13:28:09.631Z,8.70
2017-11-08T13:30:38.675Z,8.61
2017-11-08T13:33:07.705Z,8.37
2017-11-08T13:35:36.776Z,8.38
2017-11-08T13:38:05.808Z,8.11
2017-11-08T13:40:34.843Z,8.08
2017-11-08T13:43:03.887Z,8.16
2017-11-08T13:48:08.817Z,8.27
2017-11-08T13:50:37.919Z,8.27
2017-11-08T13:53:06.955Z,8.23
2017-11-08T13:55:36.202Z,8.38
2017-11-08T13:58:05.253Z,8.33
2017-11-08T14:00:36.252Z,8.31
2017-11-08T14:03:05.277Z,8.11
2017-11-08T14:08:10.486Z,8.18
2017-11-08T14:10:39.541Z,8.17
2017-11-08T14:13:08.582Z,8.11
2017-11-08T14:18:13.622Z,8.14
2017-11-08T14:20:43.684Z,8.08
2017-11-08T14:23:12.711Z,7.95
2017-11-08T14:28:17.652Z,8.00
2017-11-08T14:30:48.716Z,7.98
2017-11-08T14:33:17.755Z,7.94
2017-11-08T14:35:47.787Z,7.98
2017-11-08T14:38:16.824Z,7.86
2017-11-08T14:40:46.815Z,7.88
2017-11-08T14:43:15.831Z,7.97
2017-11-08T14:45:44.882Z,7.96
2017-11-08T14:48:13.924Z,7.87
2017-11-08T14:50:42.964Z,7.84
2017-11-08T14:53:17.380Z,7.87
2017-11-08T14:55:46.420Z,7.79
2017-11-08T14:58:16.360Z,7.72
2017-11-08T15:00:45.436Z,7.77
2017-11-08T15:03:14.468Z,7.70
2017-11-08T15:05:43.522Z,7.71
2017-11-08T15:08:13.463Z,7.78
2017-11-08T15:10:42.510Z,7.70
2017-11-08T15:13:11.541Z,7.60
2017-11-08T15:15:40.594Z,7.58
2017-11-08T15:18:09.685Z,7.60
2017-11-08T15:20:38.734Z,7.60
2017-11-08T15:23:07.793Z,7.58
2017-11-08T15:25:36.861Z,7.61
2017-11-08T15:28:05.952Z,7.51
2017-11-08T15:30:34.976Z,7.44
2017-11-08T15:33:04.019Z,7.47
2017-11-08T15:35:33.062Z,7.40
2017-11-08T15:38:04.094Z,7.38
2017-11-08T15:40:33.197Z,7.32
2017-11-08T15:43:02.260Z,7.28
2017-11-08T15:45:31.300Z,7.29
2017-11-08T15:48:00.596Z,7.28
2017-11-08T15:50:29.622Z,7.28
2017-11-08T15:53:00.635Z,7.27
2017-11-08T15:55:29.683Z,7.21
2017-11-08T15:57:58.936Z,7.18
2017-11-08T16:00:28.946Z,7.19
2017-11-08T16:02:57.992Z,7.18
2017-11-08T16:05:27.155Z,7.21
2017-11-08T16:07:56.201Z,7.15
2017-11-08T16:10:26.197Z,7.10
2017-11-08T16:12:55.999Z,6.99
2017-11-08T16:15:25.063Z,6.99
2017-11-08T16:17:54.188Z,7.00
2017-11-08T16:20:23.227Z,6.93
2017-11-08T16:22:52.274Z,6.95
2017-11-08T16:25:21.315Z,6.97
2017-11-08T16:27:50.346Z,6.93
2017-11-08T16:30:19.383Z,6.96
2017-11-08T16:32:48.424Z,6.95
2017-11-08T16:35:17.483Z,6.93
2017-11-08T16:37:47.527Z,6.94
2017-11-08T16:40:16.579Z,6.93
2017-11-08T16:42:45.615Z,6.90
2017-11-08T16:45:14.686Z,6.91
2017-11-08T16:47:43.724Z,6.82
2017-11-08T16:50:12.834Z,6.87
2017-11-08T16:52:41.875Z,6.84
2017-11-08T16:55:10.919Z,6.86
2017-11-08T16:57:40.041Z,6.96
2017-11-08T17:00:09.089Z,6.88
2017-11-08T17:02:38.149Z,6.89
2017-11-08T17:05:08.244Z,6.83
2017-11-08T17:07:37.331Z,6.82
2017-11-08T17:10:06.366Z,6.81
2017-11-08T17:12:36.347Z,6.82
2017-11-08T17:15:05.395Z,6.83
2017-11-08T17:17:34.459Z,6.81
2017-11-08T17:20:05.468Z,6.78
2017-11-08T17:22:34.475Z,6.79
2017-11-08T17:25:05.433Z,6.78
2017-11-08T17:27:34.481Z,6.76
2017-11-08T17:30:03.564Z,6.64
2017-11-08T17:32:32.606Z,6.58
2017-11-08T17:35:01.654Z,6.49
2017-11-08T17:40:06.655Z,6.57
2017-11-08T17:42:35.704Z,6.68
2017-11-08T17:47:40.644Z,6.61
2017-11-08T17:50:09.725Z,6.55
2017-11-08T17:52:38.763Z,6.49
2017-11-08T17:55:07.813Z,6.54
2017-11-08T17:57:37.969Z,6.60
2017-11-08T18:00:07.056Z,6.57
2017-11-08T18:02:36.129Z,6.48
2017-11-08T18:05:05.504Z,6.52
2017-11-08T18:07:34.542Z,6.48
2017-11-08T18:10:03.603Z,6.47
2017-11-08T18:12:32.663Z,6.48
2017-11-08T18:15:03.613Z,6.50
2017-11-08T18:17:33.612Z,6.57
2017-11-08T18:20:02.688Z,6.47
2017-11-08T18:22:31.750Z,6.44
2017-11-08T18:27:36.671Z,6.58
2017-11-08T18:30:05.712Z,6.70
2017-11-08T18:32:34.789Z,6.64
2017-11-08T18:35:04.772Z,6.57
2017-11-08T18:37:33.800Z,6.58
2017-11-08T18:45:14.680Z,6.76
2017-11-08T18:47:43.789Z,6.64
2017-11-08T18:50:12.893Z,6.57
2017-11-08T18:52:41.954Z,6.58
2017-11-08T18:55:10.975Z,6.56
2017-11-08T18:57:42.025Z,6.64
2017-11-08T19:00:11.063Z,6.58
2017-11-08T19:02:40.123Z,6.54
2017-11-08T19:05:10.064Z,6.56
2017-11-08T19:10:14.992Z,6.66
2017-11-08T19:12:44.048Z,6.59
2017-11-08T19:15:13.090Z,6.53
2017-11-08T19:17:42.180Z,6.58
2017-11-08T19:20:11.220Z,6.51
2017-11-08T19:25:16.128Z,6.62
2017-11-08T19:27:46.210Z,6.60
2017-11-08T19:30:15.305Z,6.56
2017-11-08T19:32:44.373Z,6.53
2017-11-08T19:35:13.408Z,6.49
2017-11-08T19:37:42.461Z,6.48
2017-11-08T19:40:11.493Z,6.43
2017-11-08T19:42:40.568Z,6.38
2017-11-08T19:45:09.632Z,6.38
2017-11-08T19:50:15.636Z,6.32
2017-11-08T19:52:44.693Z,6.30
2017-11-08T19:55:13.737Z,6.28
2017-11-08T19:57:43.205Z,6.28
2017-11-08T20:00:12.261Z,6.18
2017-11-08T20:02:41.380Z,6.22
2017-11-08T20:05:10.426Z,6.20
2017-11-08T20:07:39.675Z,6.23
2017-11-08T20:10:09.243Z,6.29
2017-11-08T20:12:39.457Z,6.24
2017-11-08T20:15:08.513Z,6.25
2017-11-08T20:20:14.024Z,6.35
2017-11-08T20:22:43.051Z,6.29
2017-11-08T20:25:12.103Z,6.21
2017-11-08T20:27:41.426Z,6.25
2017-11-08T20:30:10.472Z,6.29
2017-11-08T20:32:41.476Z,6.33
2017-11-08T20:35:10.545Z,6.21
2017-11-08T20:40:17.623Z,6.30
2017-11-08T20:42:46.780Z,6.15
2017-11-08T20:45:15.961Z,6.12
2017-11-08T20:47:46.032Z,6.12
2017-11-08T20:52:50.791Z,6.25
2017-11-08T20:55:20.743Z,6.16
2017-11-08T21:00:29.202Z,6.18
2017-11-08T21:02:58.247Z,6.11
2017-11-08T21:05:27.320Z,6.03
2017-11-08T21:07:57.296Z,6.05
2017-11-08T21:13:02.269Z,6.16
2017-11-08T21:15:31.319Z,6.25
2017-11-08T21:18:00.472Z,6.12
2017-11-08T21:20:30.533Z,6.02
2017-11-08T21:22:59.585Z,6.00
2017-11-08T21:25:29.618Z,6.01
2017-11-08T21:27:58.674Z,6.01
2017-11-08T21:30:27.763Z,6.00
2017-11-08T21:32:56.909Z,6.00
2017-11-08T21:35:25.996Z,6.00
2017-11-08T21:37:55.045Z,5.95
2017-11-08T21:43:00.088Z,5.92
2017-11-08T21:45:29.140Z,5.84
2017-11-08T21:47:58.187Z,5.85
2017-11-08T21:50:27.238Z,5.98
2017-11-08T21:52:56.279Z,6.07
2017-11-08T21:55:26.635Z,6.12
2017-11-08T21:58:00.720Z,6.00
2017-11-08T22:00:31.038Z,5.93
2017-11-08T22:03:00.067Z,5.90
2017-11-08T22:08:05.114Z,6.02
2017-11-08T22:10:41.241Z,5.96
2017-11-08T22:13:10.289Z,5.92
2017-11-08T22:15:39.388Z,5.89
2017-11-08T22:18:08.411Z,5.86
2017-11-08T22:23:17.389Z,5.97
2017-11-08T22:25:46.436Z,5.87
2017-11-08T22:28:15.488Z,5.89
2017-11-08T22:30:46.551Z,5.88
2017-11-08T22:33:19.418Z,5.89
2017-11-08T22:35:48.705Z,5.88
2017-11-08T22:38:18.739Z,6.01
2017-11-08T22:40:47.789Z,5.93
2017-11-08T22:43:16.876Z,6.02
2017-11-08T22:45:45.908Z,5.93
2017-11-08T22:48:14.990Z,5.99
2017-11-08T22:50:44.027Z,5.91
2017-11-08T22:53:13.073Z,5.88
2017-11-08T22:55:42.149Z,5.87
2017-11-08T22:58:12.174Z,5.97
2017-11-08T23:00:41.207Z,5.90
2017-11-08T23:03:10.266Z,5.87
2017-11-08T23:05:39.286Z,5.87
2017-11-08T23:10:44.195Z,5.94
2017-11-08T23:13:13.261Z,5.99
2017-11-08T23:15:45.653Z,5.97
2017-11-08T23:18:15.753Z,6.04
2017-11-08T23:20:44.797Z,6.11
2017-11-08T23:23:14.806Z,5.96
2017-11-08T23:25:45.396Z,5.90
2017-11-08T23:28:14.445Z,5.89
2017-11-08T23:31:27.987Z,5.91
2017-11-08T23:33:58.189Z,5.84
2017-11-08T23:36:27.239Z,5.81
2017-11-08T23:38:56.338Z,5.82
2017-11-08T23:41:26.326Z,5.84
2017-11-08T23:43:57.442Z,5.79
2017-11-08T23:46:27.569Z,5.81
2017-11-08T23:48:56.623Z,5.71
2017-11-08T23:51:25.683Z,5.72
2017-11-08T23:53:54.727Z,5.73
2017-11-08T23:56:29.273Z,5.65
2017-11-08T23:58:58.320Z,5.59
